createdAt,value
2017-11-06T00:00:17.951Z,1005.00
2017-11-06T00:01:17.948Z,1004.97
2017-11-06T00:02:17.887Z,1004.96
2017-11-06T00:03:17.950Z,1004.99
2017-11-06T00:04:17.883Z,1004.99
2017-11-06T00:05:17.950Z,1005.00
2017-11-06T00:06:17.879Z,1005.01
2017-11-06T00:07:17.952Z,1005.03
2017-11-06T00:08:17.885Z,1005.01
2017-11-06T00:09:17.953Z,1005.03
2017-11-06T00:10:17.910Z,1005.09
2017-11-06T00:11:17.954Z,1005.16
2017-11-06T00:12:17.886Z,1005.16
2017-11-06T00:13:17.954Z,1005.15
2017-11-06T00:14:17.862Z,1005.17
2017-11-06T00:15:17.956Z,1005.17
2017-11-06T00:16:17.857Z,1005.19
2017-11-06T00:17:17.945Z,1005.18
2017-11-06T00:18:17.860Z,1005.21
2017-11-06T00:19:17.955Z,1005.24
2017-11-06T00:20:17.901Z,1005.24
2017-11-06T00:21:17.866Z,1005.26
2017-11-06T00:22:17.899Z,1005.23
2017-11-06T00:23:17.960Z,1005.22
2017-11-06T00:24:17.963Z,1005.27
2017-11-06T00:25:17.963Z,1005.25
2017-11-06T00:26:17.899Z,1005.28
2017-11-06T00:27:17.976Z,1005.32
2017-11-06T00:28:17.902Z,1005.35
2017-11-06T00:29:17.966Z,1005.42
2017-11-06T00:30:17.901Z,1005.45
2017-11-06T00:31:17.965Z,1005.49
2017-11-06T00:32:17.897Z,1005.57
2017-11-06T00:33:17.969Z,1005.61
2017-11-06T00:34:17.906Z,1005.62
2017-11-06T00:35:17.962Z,1005.54
2017-11-06T00:36:17.869Z,1005.58
2017-11-06T00:37:17.841Z,1005.56
2017-11-06T00:38:17.957Z,1005.56
2017-11-06T00:39:17.958Z,1005.57
2017-11-06T00:40:17.963Z,1005.55
2017-11-06T00:41:17.875Z,1005.51
2017-11-06T00:42:17.847Z,1005.53
2017-11-06T00:43:17.973Z,1005.47
2017-11-06T00:44:17.925Z,1005.39
2017-11-06T00:45:17.834Z,1005.37
2017-11-06T00:46:17.833Z,1005.36
2017-11-06T00:47:17.883Z,1005.33
2017-11-06T00:48:17.924Z,1005.38
2017-11-06T00:49:17.881Z,1005.43
2017-11-06T00:50:17.878Z,1005.48
2017-11-06T00:51:17.879Z,1005.54
2017-11-06T00:52:17.926Z,1005.55
2017-11-06T00:53:17.836Z,1005.61
2017-11-06T00:54:17.953Z,1005.63
2017-11-06T00:55:17.917Z,1005.62
2017-11-06T00:56:17.983Z,1005.64
2017-11-06T00:57:17.980Z,1005.60
2017-11-06T00:58:17.944Z,1005.64
2017-11-06T00:59:17.919Z,1005.64
2017-11-06T01:00:17.986Z,1005.64
2017-11-06T01:01:17.985Z,1005.58
2017-11-06T01:02:17.921Z,1005.61
2017-11-06T01:03:17.989Z,1005.63
2017-11-06T01:04:17.881Z,1005.60
2017-11-06T01:05:17.850Z,1005.58
2017-11-06T01:06:17.854Z,1005.64
2017-11-06T01:07:17.940Z,1005.69
2017-11-06T01:08:17.855Z,1005.69
2017-11-06T01:09:17.937Z,1005.69
2017-11-06T01:10:17.890Z,1005.72
2017-11-06T01:11:17.953Z,1005.75
2017-11-06T01:12:17.856Z,1005.74
2017-11-06T01:13:17.948Z,1005.72
2017-11-06T01:14:17.900Z,1005.72
2017-11-06T01:15:17.896Z,1005.75
2017-11-06T01:16:17.847Z,1005.76
2017-11-06T01:17:17.849Z,1005.77
2017-11-06T01:18:17.850Z,1005.78
2017-11-06T01:19:17.940Z,1005.75
2017-11-06T01:20:17.946Z,1005.78
2017-11-06T01:21:17.941Z,1005.79
2017-11-06T01:22:17.953Z,1005.82
2017-11-06T01:23:17.948Z,1005.80
2017-11-06T01:24:17.854Z,1005.82
2017-11-06T01:25:17.857Z,1005.83
2017-11-06T01:26:17.904Z,1005.88
2017-11-06T01:27:17.863Z,1005.87
2017-11-06T01:28:17.910Z,1005.94
2017-11-06T01:29:17.859Z,1005.93
2017-11-06T01:30:17.859Z,1005.91
2017-11-06T01:31:17.956Z,1005.88
2017-11-06T01:32:17.914Z,1005.96
2017-11-06T01:33:17.950Z,1005.98
2017-11-06T01:34:17.895Z,1005.97
2017-11-06T01:35:17.900Z,1006.03
2017-11-06T01:36:17.966Z,1006.01
2017-11-06T01:37:17.985Z,1005.98
2017-11-06T01:38:17.901Z,1005.97
2017-11-06T01:39:17.942Z,1005.96
2017-11-06T01:40:17.992Z,1005.98
2017-11-06T01:41:17.962Z,1005.98
2017-11-06T01:42:17.870Z,1005.96
2017-11-06T01:43:17.899Z,1005.96
2017-11-06T01:44:17.899Z,1005.94
2017-11-06T01:45:17.945Z,1005.92
2017-11-06T01:46:18.012Z,1005.93
2017-11-06T01:47:17.950Z,1006.04
2017-11-06T01:48:18.025Z,1006.03
2017-11-06T01:49:18.014Z,1006.03
2017-11-06T01:50:18.020Z,1006.02
2017-11-06T01:51:18.017Z,1006.03
2017-11-06T01:52:18.014Z,1006.00
2017-11-06T01:53:17.948Z,1006.01
2017-11-06T01:54:18.007Z,1005.98
2017-11-06T01:55:17.886Z,1006.01
2017-11-06T01:56:18.013Z,1006.04
2017-11-06T01:57:17.974Z,1006.05
2017-11-06T01:58:18.010Z,1006.05
2017-11-06T01:59:17.889Z,1006.07
2017-11-06T02:00:17.960Z,1006.08
2017-11-06T02:01:18.009Z,1006.11
2017-11-06T02:02:17.995Z,1006.03
2017-11-06T02:03:17.965Z,1006.12
2017-11-06T02:04:18.025Z,1006.06
2017-11-06T02:05:17.961Z,1006.08
2017-11-06T02:06:18.023Z,1006.08
2017-11-06T02:07:18.025Z,1006.06
2017-11-06T02:08:17.959Z,1006.08
2017-11-06T02:09:18.026Z,1006.13
2017-11-06T02:10:17.963Z,1006.09
2017-11-06T02:11:17.971Z,1006.09
2017-11-06T02:12:17.963Z,1006.06
2017-11-06T02:13:18.080Z,1006.17
2017-11-06T02:14:18.031Z,1006.16
2017-11-06T02:15:18.031Z,1006.16
2017-11-06T02:16:18.038Z,1006.23
2017-11-06T02:17:17.962Z,1006.25
2017-11-06T02:18:18.034Z,1006.29
2017-11-06T02:19:17.965Z,1006.28
2017-11-06T02:20:18.041Z,1006.26
2017-11-06T02:21:18.033Z,1006.28
2017-11-06T02:22:17.928Z,1006.30
2017-11-06T02:23:17.988Z,1006.32
2017-11-06T02:24:17.973Z,1006.34
2017-11-06T02:25:17.956Z,1006.37
2017-11-06T02:26:18.027Z,1006.36
2017-11-06T02:27:18.039Z,1006.40
2017-11-06T02:28:18.033Z,1006.42
2017-11-06T02:29:18.026Z,1006.42
2017-11-06T02:30:18.033Z,1006.45
2017-11-06T02:31:17.981Z,1006.43
2017-11-06T02:32:17.963Z,1006.42
2017-11-06T02:33:18.039Z,1006.45
2017-11-06T02:34:17.976Z,1006.44
2017-11-06T02:35:18.046Z,1006.43
2017-11-06T02:36:18.042Z,1006.45
2017-11-06T02:37:17.980Z,1006.44
2017-11-06T02:38:17.929Z,1006.48
2017-11-06T02:39:17.983Z,1006.47
2017-11-06T02:40:17.984Z,1006.44
2017-11-06T02:41:18.045Z,1006.46
2017-11-06T02:42:18.045Z,1006.49
2017-11-06T02:43:17.981Z,1006.47
2017-11-06T02:44:18.038Z,1006.50
2017-11-06T02:45:18.005Z,1006.52
2017-11-06T02:46:17.919Z,1006.52
2017-11-06T02:47:18.040Z,1006.54
2017-11-06T02:48:18.046Z,1006.54
2017-11-06T02:49:17.992Z,1006.54
2017-11-06T02:50:17.959Z,1006.52
2017-11-06T02:51:17.985Z,1006.57
2017-11-06T02:52:18.067Z,1006.61
2017-11-06T02:53:18.000Z,1006.56
2017-11-06T02:54:17.988Z,1006.58
2017-11-06T02:55:18.053Z,1006.56
2017-11-06T02:56:18.047Z,1006.59
2017-11-06T02:57:17.994Z,1006.61
2017-11-06T02:58:18.056Z,1006.61
2017-11-06T02:59:18.057Z,1006.60
2017-11-06T03:00:17.990Z,1006.59
2017-11-06T03:01:18.058Z,1006.61
2017-11-06T03:02:18.057Z,1006.62
2017-11-06T03:03:18.035Z,1006.72
2017-11-06T03:04:17.961Z,1006.74
2017-11-06T03:05:17.928Z,1006.77
2017-11-06T03:06:18.049Z,1006.73
2017-11-06T03:07:17.930Z,1006.74
2017-11-06T03:08:17.989Z,1006.77
2017-11-06T03:09:18.045Z,1006.77
2017-11-06T03:10:18.061Z,1006.79
2017-11-06T03:11:18.034Z,1006.79
2017-11-06T03:12:18.062Z,1006.83
2017-11-06T03:13:17.971Z,1006.80
2017-11-06T03:14:17.986Z,1006.82
2017-11-06T03:15:17.973Z,1006.87
2017-11-06T03:16:18.023Z,1006.86
2017-11-06T03:17:17.989Z,1006.90
2017-11-06T03:18:17.987Z,1006.92
2017-11-06T03:19:17.972Z,1006.89
2017-11-06T03:20:17.971Z,1006.92
2017-11-06T03:21:17.974Z,1006.94
2017-11-06T03:22:17.991Z,1006.98
2017-11-06T03:23:18.065Z,1006.97
2017-11-06T03:24:17.931Z,1006.96
2017-11-06T03:25:18.037Z,1007.00
2017-11-06T03:26:17.959Z,1007.05
2017-11-06T03:27:18.058Z,1007.05
2017-11-06T03:28:17.936Z,1007.11
2017-11-06T03:29:17.936Z,1007.11
2017-11-06T03:30:17.936Z,1007.13
2017-11-06T03:31:17.936Z,1007.15
2017-11-06T03:32:17.977Z,1007.16
2017-11-06T03:33:18.013Z,1007.14
2017-11-06T03:34:18.067Z,1007.20
2017-11-06T03:35:17.983Z,1007.21
2017-11-06T03:36:18.007Z,1007.20
2017-11-06T03:37:18.065Z,1007.23
2017-11-06T03:38:18.022Z,1007.25
2017-11-06T03:39:18.071Z,1007.21
2017-11-06T03:40:18.079Z,1007.26
2017-11-06T03:41:18.010Z,1007.30
2017-11-06T03:42:18.031Z,1007.29
2017-11-06T03:43:18.026Z,1007.31
2017-11-06T03:44:18.011Z,1007.32
2017-11-06T03:45:18.019Z,1007.32
2017-11-06T03:46:18.018Z,1007.34
2017-11-06T03:47:18.145Z,1007.34
2017-11-06T03:48:18.119Z,1007.37
2017-11-06T03:49:18.025Z,1007.33
2017-11-06T03:50:18.086Z,1007.34
2017-11-06T03:51:18.087Z,1007.40
2017-11-06T03:52:18.095Z,1007.43
2017-11-06T03:53:18.026Z,1007.45
2017-11-06T03:54:18.091Z,1007.49
2017-11-06T03:55:18.089Z,1007.45
2017-11-06T03:56:18.029Z,1007.46
2017-11-06T03:57:18.093Z,1007.50
2017-11-06T03:58:18.029Z,1007.54
2017-11-06T03:59:18.096Z,1007.58
2017-11-06T04:00:18.059Z,1007.57
2017-11-06T04:01:18.036Z,1007.56
2017-11-06T04:02:18.096Z,1007.58
2017-11-06T04:03:18.031Z,1007.56
2017-11-06T04:04:18.095Z,1007.52
2017-11-06T04:05:18.098Z,1007.52
2017-11-06T04:06:17.996Z,1007.52
2017-11-06T04:07:17.983Z,1007.55
2017-11-06T04:08:17.982Z,1007.52
2017-11-06T04:09:18.080Z,1007.54
2017-11-06T04:10:18.101Z,1007.59
2017-11-06T04:11:18.034Z,1007.60
2017-11-06T04:12:18.100Z,1007.63
2017-11-06T04:13:18.033Z,1007.64
2017-11-06T04:14:18.100Z,1007.64
2017-11-06T04:15:18.011Z,1007.65
2017-11-06T04:16:18.013Z,1007.67
2017-11-06T04:17:18.099Z,1007.68
2017-11-06T04:18:18.098Z,1007.72
2017-11-06T04:19:18.094Z,1007.73
2017-11-06T04:20:18.099Z,1007.78
2017-11-06T04:21:18.014Z,1007.76
2017-11-06T04:22:18.010Z,1007.77
2017-11-06T04:23:18.100Z,1007.79
2017-11-06T04:24:18.098Z,1007.79
2017-11-06T04:25:18.011Z,1007.73
2017-11-06T04:26:18.000Z,1007.81
2017-11-06T04:27:18.043Z,1007.84
2017-11-06T04:28:18.065Z,1007.85
2017-11-06T04:29:18.090Z,1007.87
2017-11-06T04:30:17.969Z,1007.79
2017-11-06T04:31:17.984Z,1007.88
2017-11-06T04:32:18.063Z,1007.87
2017-11-06T04:33:18.015Z,1007.95
2017-11-06T04:34:18.074Z,1007.91
2017-11-06T04:35:18.113Z,1007.91
2017-11-06T04:36:18.059Z,1007.95
2017-11-06T04:37:18.114Z,1007.92
2017-11-06T04:38:18.080Z,1007.91
2017-11-06T04:39:18.115Z,1007.95
2017-11-06T04:40:18.119Z,1007.94
2017-11-06T04:41:18.122Z,1007.96
2017-11-06T04:42:18.052Z,1007.98
2017-11-06T04:43:18.047Z,1007.96
2017-11-06T04:44:18.119Z,1007.96
2017-11-06T04:45:18.041Z,1007.92
2017-11-06T04:46:18.066Z,1007.94
2017-11-06T04:47:18.029Z,1007.95
2017-11-06T04:48:18.029Z,1007.95
2017-11-06T04:49:17.993Z,1007.97
2017-11-06T04:50:18.043Z,1008.02
2017-11-06T04:51:18.113Z,1008.02
2017-11-06T04:52:18.036Z,1008.01
2017-11-06T04:53:18.031Z,1008.00
2017-11-06T04:54:18.030Z,1007.99
2017-11-06T04:55:18.066Z,1008.00
2017-11-06T04:56:18.115Z,1008.04
2017-11-06T04:57:18.125Z,1008.04
2017-11-06T04:58:18.125Z,1008.04
2017-11-06T04:59:18.030Z,1008.03
2017-11-06T05:00:18.055Z,1008.04
2017-11-06T05:01:18.121Z,1008.01
2017-11-06T05:02:18.035Z,1008.05
2017-11-06T05:03:18.118Z,1008.05
2017-11-06T05:04:18.071Z,1008.00
2017-11-06T05:05:18.132Z,1008.04
2017-11-06T05:06:18.124Z,1008.06
2017-11-06T05:07:18.039Z,1008.11
2017-11-06T05:08:18.130Z,1008.15
2017-11-06T05:09:18.044Z,1008.14
2017-11-06T05:10:18.056Z,1008.17
2017-11-06T05:11:18.022Z,1008.19
2017-11-06T05:12:18.136Z,1008.16
2017-11-06T05:13:18.045Z,1008.17
2017-11-06T05:14:18.127Z,1008.21
2017-11-06T05:15:18.126Z,1008.20
2017-11-06T05:16:18.095Z,1008.23
2017-11-06T05:17:18.092Z,1008.20
2017-11-06T05:18:18.073Z,1008.27
2017-11-06T05:19:18.039Z,1008.26
2017-11-06T05:20:18.013Z,1008.29
2017-11-06T05:21:18.130Z,1008.31
2017-11-06T05:22:18.164Z,1008.33
2017-11-06T05:23:18.009Z,1008.35
2017-11-06T05:24:18.103Z,1008.36
2017-11-06T05:25:18.084Z,1008.35
2017-11-06T05:26:18.142Z,1008.38
2017-11-06T05:27:18.083Z,1008.42
2017-11-06T05:28:18.145Z,1008.43
2017-11-06T05:29:18.105Z,1008.47
2017-11-06T05:30:18.078Z,1008.46
2017-11-06T05:31:18.151Z,1008.44
2017-11-06T05:32:18.146Z,1008.46
2017-11-06T05:33:18.152Z,1008.49
2017-11-06T05:34:18.087Z,1008.49
2017-11-06T05:35:18.061Z,1008.54
2017-11-06T05:36:18.140Z,1008.53
2017-11-06T05:37:18.112Z,1008.54
2017-11-06T05:38:18.023Z,1008.55
2017-11-06T05:39:18.149Z,1008.59
2017-11-06T05:40:18.093Z,1008.59
2017-11-06T05:41:18.027Z,1008.59
2017-11-06T05:42:18.144Z,1008.57
2017-11-06T05:43:18.082Z,1008.60
2017-11-06T05:44:18.147Z,1008.60
2017-11-06T05:45:18.066Z,1008.62
2017-11-06T05:46:17.961Z,1008.64
2017-11-06T05:47:18.004Z,1008.66
2017-11-06T05:48:18.014Z,1008.65
2017-11-06T05:49:18.039Z,1008.68
2017-11-06T05:50:18.063Z,1008.74
2017-11-06T05:51:17.966Z,1008.74
2017-11-06T05:52:18.038Z,1008.72
2017-11-06T05:53:17.970Z,1008.74
2017-11-06T05:54:18.014Z,1008.73
2017-11-06T05:55:18.159Z,1008.73
2017-11-06T05:56:18.109Z,1008.79
2017-11-06T05:57:18.164Z,1008.79
2017-11-06T05:58:18.165Z,1008.80
2017-11-06T05:59:18.141Z,1008.82
2017-11-06T06:00:18.131Z,1008.86
2017-11-06T06:01:18.177Z,1008.86
2017-11-06T06:02:18.102Z,1008.87
2017-11-06T06:03:18.166Z,1008.91
2017-11-06T06:04:18.180Z,1008.90
2017-11-06T06:05:18.071Z,1008.91
2017-11-06T06:06:18.109Z,1008.98
2017-11-06T06:07:18.073Z,1008.93
2017-11-06T06:08:18.122Z,1008.97
2017-11-06T06:09:18.154Z,1009.04
2017-11-06T06:10:18.168Z,1008.97
2017-11-06T06:11:18.072Z,1009.01
2017-11-06T06:12:18.174Z,1009.05
2017-11-06T06:13:18.170Z,1009.07
2017-11-06T06:14:18.066Z,1009.04
2017-11-06T06:15:18.056Z,1009.01
2017-11-06T06:16:18.143Z,1008.99
2017-11-06T06:17:18.113Z,1008.98
2017-11-06T06:18:18.144Z,1009.01
2017-11-06T06:19:18.102Z,1009.01
2017-11-06T06:20:18.060Z,1009.08
2017-11-06T06:21:18.085Z,1009.07
2017-11-06T06:22:18.111Z,1009.09
2017-11-06T06:23:18.113Z,1009.11
2017-11-06T06:24:18.087Z,1009.13
2017-11-06T06:25:18.175Z,1009.17
2017-11-06T06:26:18.104Z,1009.17
2017-11-06T06:27:18.103Z,1009.18
2017-11-06T06:28:18.084Z,1009.20
2017-11-06T06:29:18.175Z,1009.26
2017-11-06T06:30:18.180Z,1009.27
2017-11-06T06:31:18.172Z,1009.26
2017-11-06T06:32:18.179Z,1009.27
2017-11-06T06:33:18.172Z,1009.35
2017-11-06T06:34:18.170Z,1009.37
2017-11-06T06:35:18.134Z,1009.42
2017-11-06T06:36:18.047Z,1009.45
2017-11-06T06:37:18.130Z,1009.52
2017-11-06T06:38:18.136Z,1009.50
2017-11-06T06:39:18.087Z,1009.49
2017-11-06T06:40:18.043Z,1009.56
2017-11-06T06:41:18.111Z,1009.55
2017-11-06T06:42:18.140Z,1009.54
2017-11-06T06:43:18.134Z,1009.56
2017-11-06T06:45:18.060Z,1009.57
2017-11-06T06:46:18.096Z,1009.58
2017-11-06T06:47:18.179Z,1009.60
2017-11-06T06:48:18.102Z,1009.60
2017-11-06T06:49:18.178Z,1009.60
2017-11-06T06:50:18.191Z,1009.59
2017-11-06T06:51:18.066Z,1009.59
2017-11-06T06:52:18.124Z,1009.60
2017-11-06T06:53:18.100Z,1009.58
2017-11-06T06:54:18.103Z,1009.65
2017-11-06T06:55:18.195Z,1009.66
2017-11-06T06:56:18.135Z,1009.62
2017-11-06T06:57:18.214Z,1009.67
2017-11-06T06:58:18.139Z,1009.67
2017-11-06T06:59:18.135Z,1009.65
2017-11-06T07:00:18.201Z,1009.67
2017-11-06T07:01:18.179Z,1009.66
2017-11-06T07:02:18.201Z,1009.66
2017-11-06T07:03:18.135Z,1009.70
2017-11-06T07:04:18.200Z,1009.71
2017-11-06T07:05:18.203Z,1009.70
2017-11-06T07:06:18.137Z,1009.76
2017-11-06T07:07:18.206Z,1009.76
2017-11-06T07:08:18.138Z,1009.81
2017-11-06T07:09:18.205Z,1009.83
2017-11-06T07:10:18.142Z,1009.83
2017-11-06T07:11:18.208Z,1009.85
2017-11-06T07:12:18.140Z,1009.89
2017-11-06T07:13:18.206Z,1009.83
2017-11-06T07:14:18.143Z,1009.89
2017-11-06T07:15:18.208Z,1009.90
2017-11-06T07:16:18.146Z,1009.98
2017-11-06T07:17:18.210Z,1009.94
2017-11-06T07:18:18.165Z,1010.00
2017-11-06T07:19:18.210Z,1010.00
2017-11-06T07:20:18.166Z,1010.03
2017-11-06T07:21:18.214Z,1010.04
2017-11-06T07:22:18.147Z,1010.06
2017-11-06T07:23:18.143Z,1010.04
2017-11-06T07:24:18.212Z,1010.05
2017-11-06T07:25:18.174Z,1010.06
2017-11-06T07:26:18.217Z,1010.04
2017-11-06T07:27:18.149Z,1010.05
2017-11-06T07:28:18.215Z,1010.08
2017-11-06T07:29:18.149Z,1010.08
2017-11-06T07:30:18.218Z,1010.12
2017-11-06T07:31:18.218Z,1010.11
2017-11-06T07:32:18.161Z,1010.12
2017-11-06T07:33:18.224Z,1010.11
2017-11-06T07:34:18.149Z,1010.11
2017-11-06T07:35:18.224Z,1010.08
2017-11-06T07:36:18.155Z,1010.09
2017-11-06T07:37:18.221Z,1010.07
2017-11-06T07:38:18.223Z,1010.13
2017-11-06T07:39:18.163Z,1010.12
2017-11-06T07:40:18.240Z,1010.16
2017-11-06T07:41:18.221Z,1010.18
2017-11-06T07:42:18.160Z,1010.17
2017-11-06T07:43:18.160Z,1010.13
2017-11-06T07:44:18.157Z,1010.17
2017-11-06T07:45:18.159Z,1010.19
2017-11-06T07:46:18.152Z,1010.21
2017-11-06T07:47:18.155Z,1010.22
2017-11-06T07:48:18.215Z,1010.25
2017-11-06T07:49:18.094Z,1010.27
2017-11-06T07:50:18.120Z,1010.31
2017-11-06T07:51:18.210Z,1010.31
2017-11-06T07:52:18.103Z,1010.31
2017-11-06T07:53:18.173Z,1010.34
2017-11-06T07:54:18.223Z,1010.34
2017-11-06T07:55:18.194Z,1010.36
2017-11-06T07:56:18.234Z,1010.39
2017-11-06T07:57:18.165Z,1010.39
2017-11-06T07:58:18.165Z,1010.43
2017-11-06T07:59:18.166Z,1010.43
2017-11-06T08:00:18.237Z,1010.45
2017-11-06T08:01:18.178Z,1010.44
2017-11-06T08:02:18.237Z,1010.43
2017-11-06T08:03:18.170Z,1010.47
2017-11-06T08:04:18.241Z,1010.46
2017-11-06T08:05:18.268Z,1010.50
2017-11-06T08:06:18.168Z,1010.53
2017-11-06T08:07:18.240Z,1010.56
2017-11-06T08:08:18.176Z,1010.55
2017-11-06T08:09:18.239Z,1010.59
2017-11-06T08:10:18.247Z,1010.58
2017-11-06T08:11:18.241Z,1010.66
2017-11-06T08:12:18.174Z,1010.65
2017-11-06T08:13:18.245Z,1010.64
2017-11-06T08:14:18.174Z,1010.65
2017-11-06T08:15:18.244Z,1010.68
2017-11-06T08:16:18.245Z,1010.65
2017-11-06T08:17:18.212Z,1010.68
2017-11-06T08:18:18.180Z,1010.65
2017-11-06T08:19:18.246Z,1010.73
2017-11-06T08:20:18.249Z,1010.69
2017-11-06T08:21:18.181Z,1010.71
2017-11-06T08:22:18.202Z,1010.70
2017-11-06T08:23:18.187Z,1010.71
2017-11-06T08:24:18.251Z,1010.74
2017-11-06T08:25:18.219Z,1010.74
2017-11-06T08:26:18.154Z,1010.79
2017-11-06T08:27:18.117Z,1010.80
2017-11-06T08:28:18.131Z,1010.83
2017-11-06T08:29:18.183Z,1010.84
2017-11-06T08:30:18.182Z,1010.85
2017-11-06T08:31:18.242Z,1010.91
2017-11-06T08:32:18.249Z,1010.87
2017-11-06T08:33:18.242Z,1010.88
2017-11-06T08:34:18.163Z,1010.84
2017-11-06T08:35:18.190Z,1010.84
2017-11-06T08:36:18.258Z,1010.84
2017-11-06T08:37:18.259Z,1010.83
2017-11-06T08:38:18.196Z,1010.84
2017-11-06T08:39:18.281Z,1010.83
2017-11-06T08:40:18.260Z,1010.80
2017-11-06T08:41:18.189Z,1010.83
2017-11-06T08:42:18.260Z,1010.79
2017-11-06T08:43:18.192Z,1010.81
2017-11-06T08:44:18.262Z,1010.85
2017-11-06T08:45:18.157Z,1010.81
2017-11-06T08:46:18.159Z,1010.84
2017-11-06T08:47:18.200Z,1010.89
2017-11-06T08:48:18.153Z,1010.88
2017-11-06T08:49:18.252Z,1010.88
2017-11-06T08:50:18.242Z,1010.96
2017-11-06T08:51:18.234Z,1010.97
2017-11-06T08:52:18.133Z,1010.99
2017-11-06T08:53:18.235Z,1011.00
2017-11-06T08:54:18.180Z,1011.02
2017-11-06T08:55:18.268Z,1010.99
2017-11-06T08:56:18.269Z,1011.01
2017-11-06T08:57:18.210Z,1011.03
2017-11-06T08:58:18.273Z,1011.03
2017-11-06T08:59:18.206Z,1011.00
2017-11-06T09:00:18.277Z,1011.02
2017-11-06T09:01:18.204Z,1011.02
2017-11-06T09:02:18.307Z,1011.02
2017-11-06T09:03:18.273Z,1011.05
2017-11-06T09:04:18.209Z,1011.01
2017-11-06T09:05:18.276Z,1011.01
2017-11-06T09:06:18.205Z,1011.05
2017-11-06T09:07:18.275Z,1011.09
2017-11-06T09:08:18.205Z,1011.08
2017-11-06T09:09:18.278Z,1011.10
2017-11-06T09:10:18.277Z,1011.19
2017-11-06T09:11:18.206Z,1011.14
2017-11-06T09:12:18.279Z,1011.20
2017-11-06T09:13:18.206Z,1011.24
2017-11-06T09:14:18.280Z,1011.27
2017-11-06T09:15:18.216Z,1011.31
2017-11-06T09:16:18.248Z,1011.29
2017-11-06T09:17:18.274Z,1011.29
2017-11-06T09:18:18.217Z,1011.39
2017-11-06T09:19:18.272Z,1011.36
2017-11-06T09:20:18.183Z,1011.41
2017-11-06T09:21:18.237Z,1011.45
2017-11-06T09:22:18.187Z,1011.49
2017-11-06T09:23:18.191Z,1011.49
2017-11-06T09:24:18.187Z,1011.47
2017-11-06T09:25:18.216Z,1011.46
2017-11-06T09:26:18.288Z,1011.52
2017-11-06T09:27:18.219Z,1011.50
2017-11-06T09:28:18.288Z,1011.51
2017-11-06T09:29:18.239Z,1011.51
2017-11-06T09:30:18.225Z,1011.53
2017-11-06T09:31:18.225Z,1011.55
2017-11-06T09:32:18.294Z,1011.56
2017-11-06T09:33:18.225Z,1011.59
2017-11-06T09:34:18.294Z,1011.61
2017-11-06T09:35:18.180Z,1011.64
2017-11-06T09:36:18.248Z,1011.66
2017-11-06T09:37:18.214Z,1011.67
2017-11-06T09:38:18.155Z,1011.74
2017-11-06T09:39:18.279Z,1011.69
2017-11-06T09:40:18.158Z,1011.71
2017-11-06T09:41:18.207Z,1011.72
2017-11-06T09:42:18.280Z,1011.76
2017-11-06T09:43:18.333Z,1011.78
2017-11-06T09:44:18.250Z,1011.77
2017-11-06T09:45:18.242Z,1011.79
2017-11-06T09:46:18.164Z,1011.83
2017-11-06T09:47:18.239Z,1011.86
2017-11-06T09:48:18.244Z,1011.83
2017-11-06T09:49:18.199Z,1011.87
2017-11-06T09:50:18.155Z,1011.85
2017-11-06T09:51:18.157Z,1011.87
2017-11-06T09:52:18.249Z,1011.86
2017-11-06T09:53:18.161Z,1011.84
2017-11-06T09:54:18.158Z,1011.87
2017-11-06T09:55:18.315Z,1011.85
2017-11-06T09:56:18.205Z,1011.88
2017-11-06T09:57:18.210Z,1011.84
2017-11-06T09:58:18.251Z,1011.85
2017-11-06T09:59:18.161Z,1011.81
2017-11-06T10:00:18.208Z,1011.83
2017-11-06T10:01:18.213Z,1011.81
2017-11-06T10:02:18.251Z,1011.86
2017-11-06T10:03:18.259Z,1011.84
2017-11-06T10:04:18.210Z,1011.82
2017-11-06T10:05:18.244Z,1011.89
2017-11-06T10:06:18.294Z,1011.86
2017-11-06T10:07:18.178Z,1011.83
2017-11-06T10:08:18.307Z,1011.90
2017-11-06T10:09:18.199Z,1011.87
2017-11-06T10:10:18.215Z,1011.88
2017-11-06T10:11:18.313Z,1011.87
2017-11-06T10:12:18.199Z,1011.88
2017-11-06T10:13:18.252Z,1011.89
2017-11-06T10:14:18.221Z,1011.93
2017-11-06T10:15:18.318Z,1011.92
2017-11-06T10:16:18.245Z,1011.94
2017-11-06T10:17:18.318Z,1011.94
2017-11-06T10:18:18.252Z,1011.95
2017-11-06T10:19:18.319Z,1011.96
2017-11-06T10:20:18.253Z,1012.01
2017-11-06T10:21:18.321Z,1012.01
2017-11-06T10:22:18.322Z,1012.04
2017-11-06T10:23:18.251Z,1012.03
2017-11-06T10:24:18.321Z,1012.00
2017-11-06T10:25:18.250Z,1012.04
2017-11-06T10:26:18.322Z,1012.02
2017-11-06T10:27:18.476Z,1012.03
2017-11-06T10:28:18.324Z,1012.05
2017-11-06T10:29:18.328Z,1012.04
2017-11-06T10:30:18.327Z,1012.08
2017-11-06T10:31:18.256Z,1012.03
2017-11-06T10:32:18.327Z,1011.99
2017-11-06T10:33:18.256Z,1012.03
2017-11-06T10:34:18.256Z,1012.02
2017-11-06T10:35:18.328Z,1012.05
2017-11-06T10:36:18.330Z,1012.04
2017-11-06T10:37:18.265Z,1012.04
2017-11-06T10:38:18.331Z,1012.04
2017-11-06T10:39:18.268Z,1012.03
2017-11-06T10:40:18.331Z,1012.00
2017-11-06T10:41:18.269Z,1011.97
2017-11-06T10:42:18.336Z,1012.01
2017-11-06T10:43:18.265Z,1011.96
2017-11-06T10:44:18.337Z,1011.97
2017-11-06T10:45:18.266Z,1011.96
2017-11-06T10:46:18.273Z,1011.94
2017-11-06T10:47:18.336Z,1011.95
2017-11-06T10:48:18.272Z,1011.91
2017-11-06T10:49:18.338Z,1011.94
2017-11-06T10:50:18.310Z,1011.93
2017-11-06T10:51:18.275Z,1011.95
2017-11-06T10:52:18.339Z,1011.94
2017-11-06T10:53:18.287Z,1011.95
2017-11-06T10:54:18.274Z,1011.92
2017-11-06T10:55:18.342Z,1011.89
2017-11-06T10:56:18.230Z,1011.89
2017-11-06T10:57:18.288Z,1011.92
2017-11-06T10:58:18.204Z,1011.90
2017-11-06T10:59:18.288Z,1011.93
2017-11-06T11:00:18.232Z,1011.94
2017-11-06T11:01:18.241Z,1011.98
2017-11-06T11:02:18.215Z,1011.96
2017-11-06T11:03:18.279Z,1012.01
2017-11-06T11:04:18.217Z,1012.02
2017-11-06T11:05:18.303Z,1012.03
2017-11-06T11:06:18.280Z,1012.05
2017-11-06T11:07:18.283Z,1012.03
2017-11-06T11:08:18.361Z,1012.03
2017-11-06T11:09:18.283Z,1012.07
2017-11-06T11:10:18.376Z,1012.05
2017-11-06T11:11:18.284Z,1012.05
2017-11-06T11:12:18.512Z,1012.05
2017-11-06T11:13:18.353Z,1012.02
2017-11-06T11:14:18.353Z,1011.99
2017-11-06T11:15:18.355Z,1012.02
2017-11-06T11:16:18.325Z,1012.04
2017-11-06T11:17:18.283Z,1012.06
2017-11-06T11:18:18.353Z,1012.04
2017-11-06T11:19:18.289Z,1012.04
2017-11-06T11:20:18.288Z,1012.04
2017-11-06T11:21:18.357Z,1012.06
2017-11-06T11:22:18.289Z,1012.01
2017-11-06T11:23:18.361Z,1012.00
2017-11-06T11:24:18.357Z,1012.04
2017-11-06T11:25:18.360Z,1012.00
2017-11-06T11:26:18.289Z,1012.06
2017-11-06T11:27:18.360Z,1012.04
2017-11-06T11:28:18.293Z,1012.05
2017-11-06T11:29:18.362Z,1012.06
2017-11-06T11:30:18.294Z,1012.05
2017-11-06T11:31:18.297Z,1012.06
2017-11-06T11:32:18.290Z,1012.11
2017-11-06T11:33:18.393Z,1012.04
2017-11-06T11:34:18.299Z,1012.04
2017-11-06T11:35:18.365Z,1012.03
2017-11-06T11:36:18.362Z,1012.08
2017-11-06T11:37:18.296Z,1012.06
2017-11-06T11:38:18.365Z,1012.08
2017-11-06T11:39:18.367Z,1012.08
2017-11-06T11:40:18.306Z,1012.09
2017-11-06T11:41:18.369Z,1012.10
2017-11-06T11:42:18.298Z,1012.13
2017-11-06T11:43:18.368Z,1012.14
2017-11-06T11:44:18.301Z,1012.16
2017-11-06T11:45:18.369Z,1012.19
2017-11-06T11:46:18.252Z,1012.20
2017-11-06T11:47:18.356Z,1012.20
2017-11-06T11:48:18.280Z,1012.25
2017-11-06T11:49:18.360Z,1012.24
2017-11-06T11:50:18.360Z,1012.25
2017-11-06T11:51:18.303Z,1012.31
2017-11-06T11:52:18.275Z,1012.30
2017-11-06T11:53:18.342Z,1012.30
2017-11-06T11:54:18.363Z,1012.32
2017-11-06T11:55:18.260Z,1012.37
2017-11-06T11:56:18.310Z,1012.38
2017-11-06T11:57:18.405Z,1012.37
2017-11-06T11:58:18.322Z,1012.41
2017-11-06T11:59:18.386Z,1012.44
2017-11-06T12:00:18.310Z,1012.43
2017-11-06T12:01:18.382Z,1012.41
2017-11-06T12:02:18.416Z,1012.43
2017-11-06T12:03:18.381Z,1012.45
2017-11-06T12:04:18.325Z,1012.43
2017-11-06T12:05:18.382Z,1012.46
2017-11-06T12:06:18.331Z,1012.44